Wetterdaten: aktuell Freitag, 09.12.2022 19:10
Datum Zeit Temp. A. Feuchte A. Luftdruck Regen Wind ET UV Solar Windben
09.12.2022 19:10 -1,1 C 93 % 1004,3 hPa 0,0 l/m 0,0 km/h (0 Bft) 0,000 mm 0,0 UV-I 0 W/m 0,0 km/h (0 Bft)
09.12.2022 18:10 -1,2 C 93 % 1003,9 hPa 0,0 l/m 0,0 km/h (0 Bft) 0,000 mm 0,0 UV-I 0 W/m 0,0 km/h (0 Bft)
09.12.2022 17:10 -1,1 C 92 % 1004,1 hPa 0,0 l/m 0,1 km/h (0 Bft) 0,000 mm 0,0 UV-I 0 W/m 1,6 km/h (1 Bft)
09.12.2022 16:10 -0,9 C 89 % 1004,2 hPa 0,0 l/m 0,0 km/h (0 Bft) 0,000 mm 0,0 UV-I 0 W/m 0,0 km/h (0 Bft)
09.12.2022 15:10 -0,3 C 86 % 1004,3 hPa 0,0 l/m 0,0 km/h (0 Bft) 0,025 mm 0,0 UV-I 45 W/m 0,0 km/h (0 Bft)
09.12.2022 14:10 -0,2 C 87 % 1004,6 hPa 0,0 l/m 0,0 km/h (0 Bft) 0,026 mm 0,0 UV-I 90 W/m 0,0 km/h (0 Bft)
09.12.2022 13:10 0,2 C 86 % 1004,9 hPa 0,3 l/m 0,0 km/h (0 Bft) 0,050 mm 0,0 UV-I 136 W/m 0,0 km/h (0 Bft)
09.12.2022 12:10 -0,3 C 89 % 1005,1 hPa 0,0 l/m 0,0 km/h (0 Bft) 0,051 mm 0,0 UV-I 156 W/m 0,0 km/h (0 Bft)
09.12.2022 11:10 -0,8 C 91 % 1005,6 hPa 0,0 l/m 0,0 km/h (0 Bft) 0,026 mm 0,0 UV-I 143 W/m 0,0 km/h (0 Bft)
09.12.2022 10:10 -1,4 C 89 % 1006,1 hPa 0,0 l/m 0,0 km/h (0 Bft) 0,025 mm 0,0 UV-I 91 W/m 0,0 km/h (0 Bft)
09.12.2022 09:10 -0,6 C 92 % 1006,3 hPa 0,0 l/m 0,0 km/h (0 Bft) 0,000 mm 0,0 UV-I 31 W/m 0,0 km/h (0 Bft)
09.12.2022 08:10 -0,6 C 92 % 1006,3 hPa 0,0 l/m 0,0 km/h (0 Bft) 0,000 mm 0,0 UV-I 3 W/m 0,0 km/h (0 Bft)
09.12.2022 07:10 -0,6 C 92 % 1006,1 hPa 0,0 l/m 0,0 km/h (0 Bft) 0,000 mm 0,0 UV-I 0 W/m 0,0 km/h (0 Bft)
09.12.2022 06:10 -0,6 C 92 % 1006,4 hPa 0,0 l/m 0,0 km/h (0 Bft) 0,000 mm 0,0 UV-I 0 W/m 0,0 km/h (0 Bft)
09.12.2022 05:10 -0,6 C 92 % 1006,5 hPa 0,0 l/m 0,0 km/h (0 Bft) 0,000 mm 0,0 UV-I 0 W/m 0,0 km/h (0 Bft)
09.12.2022 04:10 -0,3 C 92 % 1006,6 hPa 0,0 l/m 0,0 km/h (0 Bft) 0,000 mm 0,0 UV-I 0 W/m 0,0 km/h (0 Bft)
09.12.2022 03:10 -0,1 C 91 % 1007,0 hPa 0,0 l/m 0,0 km/h (0 Bft) 0,000 mm 0,0 UV-I 0 W/m 0,0 km/h (0 Bft)
09.12.2022 02:10 0,1 C 90 % 1007,0 hPa 0,0 l/m 2,5 km/h (1 Bft) 0,000 mm 0,0 UV-I 0 W/m 6,4 km/h (2 Bft)
09.12.2022 01:10 0,3 C 90 % 1007,0 hPa 0,0 l/m 2,4 km/h (1 Bft) 0,000 mm 0,0 UV-I 0 W/m 9,7 km/h (2 Bft)
09.12.2022 00:10 0,4 C 89 % 1007,1 hPa 0,0 l/m 7,9 km/h (2 Bft) 0,000 mm 0,0 UV-I 0 W/m 11,3 km/h (2 Bft)
08.12.2022 23:10 0,4 C 87 % 1007,2 hPa 0,0 l/m 4,5 km/h (1 Bft) 0,000 mm 0,0 UV-I 0 W/m 9,7 km/h (2 Bft)
08.12.2022 22:10 0,5 C 86 % 1007,1 hPa 0,0 l/m 0,6 km/h (0 Bft) 0,000 mm 0,0 UV-I 0 W/m 4,8 km/h (1 Bft)
08.12.2022 21:10 0,6 C 86 % 1007,0 hPa 0,0 l/m 5,5 km/h (1 Bft) 0,000 mm 0,0 UV-I 0 W/m 9,7 km/h (2 Bft)
08.12.2022 20:10 0,6 C 88 % 1006,9 hPa 0,0 l/m 2,6 km/h (1 Bft) 0,000 mm 0,0 UV-I 0 W/m 4,8 km/h (1 Bft)
08.12.2022 20:00 0,6 C 88 % 1007,0 hPa 0,0 l/m 0,5 km/h (0 Bft) 0,000 mm 0,0 UV-I 0 W/m 1,6 km/h (1 Bft)
_ Min-Zeit 10:32 21:04 18:16 - 21:44 - - - 21:46
Minimum _ -1,8 C 86 % 1003,8 hPa - 0,0 km/h (0 Bft) - - - 0,0 km/h (0 Bft)
_ Max-Zeit 21:22 17:16 21:38 12:22 00:10 12:00 20:00 11:38 23:52
Maximum _ 0,7 C 93 % 1007,2 hPa 0,3 l/m 7,9 km/h
SW (2 Bft)
0,051 mm 0,0 UV-I 247 W/m 12,9 km/h
W-SW (3 Bft)
Durchschnitt _ -0,3 C 90 % 1006,0 hPa #0,3 l/m 0,9 km/h (0 Bft) #0,203 mm 0,0 UV-I 92 W/m 2,0 km/h (1 Bft)